createdAt,value
2023-04-27T00:02:31.536Z,71
2023-04-27T04:53:15.695Z,83
2023-04-27T06:33:30.962Z,73
2023-04-27T07:13:36.283Z,65
2023-04-27T07:43:41.010Z,58
2023-04-27T07:53:42.566Z,54
2023-04-27T08:33:49.806Z,51
2023-04-27T09:33:59.583Z,44
2023-04-27T09:54:02.284Z,41
2023-04-27T10:04:04.105Z,43
2023-04-27T10:24:07.194Z,39
2023-04-27T10:44:10.021Z,40
2023-04-27T11:04:14.016Z,39
2023-04-27T11:24:16.079Z,36
2023-04-27T11:34:19.312Z,37
2023-04-27T11:44:19.353Z,35
2023-04-27T11:54:21.351Z,36
2023-04-27T12:04:23.344Z,37
2023-04-27T12:14:24.920Z,36
2023-04-27T12:24:26.388Z,35
2023-04-27T12:34:27.585Z,35
2023-04-27T12:44:28.829Z,36
2023-04-27T12:54:30.213Z,36
2023-04-27T13:24:35.125Z,34
2023-04-27T13:34:36.941Z,35
2023-04-27T13:44:38.220Z,34
2023-04-27T14:24:44.271Z,35
2023-04-27T14:34:46.046Z,34
2023-04-27T14:44:48.684Z,34
2023-04-27T15:04:50.516Z,35
2023-04-27T15:24:53.255Z,36
2023-04-27T15:44:55.476Z,37
2023-04-27T16:04:59.141Z,39
2023-04-27T16:15:00.886Z,39
2023-04-27T16:25:02.020Z,39
2023-04-27T16:35:03.299Z,39
2023-04-27T16:45:05.139Z,40
2023-04-27T16:55:06.728Z,39
2023-04-27T17:05:07.852Z,40
2023-04-27T17:25:10.140Z,40
2023-04-27T17:35:11.994Z,41
2023-04-27T17:45:13.406Z,42
2023-04-27T17:55:15.164Z,42
2023-04-27T18:05:17.173Z,43
2023-04-27T18:15:19.062Z,44
2023-04-27T18:25:20.632Z,44
2023-04-27T18:35:22.041Z,45
2023-04-27T18:55:25.794Z,46
2023-04-27T19:05:27.537Z,47
2023-04-27T19:15:28.879Z,47
2023-04-27T19:25:30.259Z,48
2023-04-27T19:35:31.836Z,48
2023-04-27T19:45:33.807Z,49
2023-04-27T19:55:35.017Z,49
2023-04-27T20:05:36.461Z,50
2023-04-27T20:15:38.238Z,50
2023-04-27T20:25:40.217Z,50
2023-04-27T20:35:41.578Z,51
2023-04-27T20:55:44.459Z,51
2023-04-27T21:05:46.343Z,51
2023-04-27T21:15:47.895Z,51
2023-04-27T21:25:49.723Z,51
2023-04-27T21:35:51.603Z,51
2023-04-27T21:45:52.872Z,52
2023-04-27T21:55:54.431Z,52
2023-04-27T22:05:56.024Z,52
2023-04-27T22:15:57.328Z,53
2023-04-27T22:25:58.795Z,54
2023-04-27T22:36:00.162Z,54
2023-04-27T22:46:01.969Z,55
2023-04-27T22:56:03.302Z,55
2023-04-27T23:06:04.878Z,55
2023-04-27T23:16:06.256Z,56
2023-04-27T23:26:07.706Z,56
2023-04-27T23:36:08.783Z,57
2023-04-27T23:46:10.099Z,57
2023-04-27T23:56:12.174Z,57
2023-04-27T23:58:50.498Z,57
